La Sardane — FO4883 — position and weather

sailwx.info

Track history (hours):
 
Tides and Currents Weather Stations Pressure Air Temp Water Temp Dewpoint Dewpoint Depression Visibility Wind Speed Wind Dir Waves Ship Positions

La Sardane

Last reported at 2017-Feb-22 10:12 UTC. Time now 2017-Feb-22 13:12 UTC.
Position N 48°06' W 004°19'.

Length 16 m.

Type: Fishing. MMSI: 227318010.

Date/timePositionNaut miles runAvg speedWind from/ knotsBaromVisibWave heightAir tempDewpointWater temp
2017-Feb-22 10:12N 48°06' W 004°19'0 0.0
2017-Feb-21 23:07N 48°06' W 004°19'0 0.1
2017-Feb-21 22:33N 48°06' W 004°19'0 0.0
2017-Feb-21 21:33N 48°06' W 004°19'8 8.2
2017-Feb-21 20:33N 48°06' W 004°32'4 4.2
2017-Feb-21 19:33N 48°08' W 004°37'6 5.7
2017-Feb-21 18:33N 48°10' W 004°29'0 0.3
2017-Feb-21 17:33N 48°10' W 004°29'6 6.1
2017-Feb-21 16:33N 48°07' W 004°21'1 0.1
2017-Feb-20 21:33N 48°06' W 004°19'7 7.6
2017-Feb-20 20:34N 48°09' W 004°30'7 7.3
2017-Feb-20 19:33N 48°12' W 004°39'2 2.3
2017-Feb-20 18:34N 48°14' W 004°42'4 3.5
2017-Feb-20 17:34N 48°11' W 004°38'9 8.7
2017-Feb-20 16:33N 48°08' W 004°26'5 3.3
2017-Feb-20 15:07N 48°06' W 004°19'0 0.0
2017-Feb-19 21:20N 48°06' W 004°19'4 5.4
2017-Feb-19 20:33N 48°07' W 004°25'9 8.6
2017-Feb-19 19:34N 48°05' W 004°38'4 4.1
2017-Feb-19 18:33N 48°08' W 004°34'6 6.5
2017-Feb-19 17:33N 48°07' W 004°25'  
2017-Feb-17 00:34N 48°06' W 004°19'1 1.0
2017-Feb-16 23:34N 48°07' W 004°20'2 2.5
2017-Feb-16 22:34N 48°09' W 004°22'8 7.7
2017-Feb-16 21:34N 48°09' W 004°34'7 6.7
2017-Feb-16 20:33N 48°14' W 004°41'1 0.5
2017-Feb-16 19:33N 48°14' W 004°41'1 0.9
2017-Feb-16 18:34N 48°14' W 004°42'1 1.1
2017-Feb-16 17:34N 48°13' W 004°41'8 8.3
2017-Feb-16 16:33N 48°09' W 004°30'8 7.7
2017-Feb-16 15:34N 48°06' W 004°19'0 0.0
2017-Feb-16 11:05N 48°06' W 004°19'0 0.0
2017-Feb-16 10:34N 48°06' W 004°19'0 0.0
2017-Feb-16 09:34N 48°06' W 004°19'0 0.0
2017-Feb-15 20:22N 48°06' W 004°19'0 0.1
2017-Feb-15 19:33N 48°06' W 004°19'4 3.9
2017-Feb-15 18:34N 48°10' W 004°20'2 2.2
2017-Feb-15 17:33N 48°12' W 004°20'6 6.0
2017-Feb-15 16:33N 48°06' W 004°19'0 0.0
2017-Feb-14 20:33N 48°06' W 004°19'0 0.1
2017-Feb-14 19:34N 48°06' W 004°19'8 8.2
2017-Feb-14 18:34N 48°10' W 004°30'1 0.6
2017-Feb-14 17:34N 48°10' W 004°29'7 7.2
2017-Feb-14 16:31N 48°06' W 004°19'0 0.0
2017-Feb-13 20:33N 48°06' W 004°19'0 0.0
2017-Feb-13 19:34N 48°06' W 004°19'6 5.8
2017-Feb-13 18:34N 48°09' W 004°26'0 0.4
2017-Feb-13 17:34N 48°09' W 004°26'2 2.5
2017-Feb-13 16:33N 48°07' W 004°26'5 0.2
2017-Feb-12 18:33N 48°06' W 004°18'1 1.1
2017-Feb-12 17:33N 48°08' W 004°18'  
Track history (hours):
 
Tides and Currents Weather Stations Pressure Air Temp Water Temp Dewpoint Dewpoint Depression Visibility Wind Speed Wind Dir Waves Ship Positions

La Sardane

Last reported at 2017-Feb-22 10:12 UTC. Time now 2017-Feb-22 13:12 UTC.
Position N 48°06' W 004°19'.

Length 16 m.

Type: Fishing. MMSI: 227318010.

Date/timePositionNaut miles runAvg speedWind from/ knotsBaromVisibWave heightAir tempDewpointWater temp
2017-Feb-22 10:12N 48°06' W 004°19'0 0.0
2017-Feb-21 23:07N 48°06' W 004°19'0 0.1
2017-Feb-21 22:33N 48°06' W 004°19'0 0.0
2017-Feb-21 21:33N 48°06' W 004°19'8 8.2
2017-Feb-21 20:33N 48°06' W 004°32'4 4.2
2017-Feb-21 19:33N 48°08' W 004°37'6 5.7
2017-Feb-21 18:33N 48°10' W 004°29'0 0.3
2017-Feb-21 17:33N 48°10' W 004°29'6 6.1
2017-Feb-21 16:33N 48°07' W 004°21'1 0.1
2017-Feb-20 21:33N 48°06' W 004°19'7 7.6
2017-Feb-20 20:34N 48°09' W 004°30'7 7.3
2017-Feb-20 19:33N 48°12' W 004°39'2 2.3
2017-Feb-20 18:34N 48°14' W 004°42'4 3.5
2017-Feb-20 17:34N 48°11' W 004°38'9 8.7
2017-Feb-20 16:33N 48°08' W 004°26'5 3.3
2017-Feb-20 15:07N 48°06' W 004°19'0 0.0
2017-Feb-19 21:20N 48°06' W 004°19'4 5.4
2017-Feb-19 20:33N 48°07' W 004°25'9 8.6
2017-Feb-19 19:34N 48°05' W 004°38'4 4.1
2017-Feb-19 18:33N 48°08' W 004°34'6 6.5
2017-Feb-19 17:33N 48°07' W 004°25'  
2017-Feb-17 00:34N 48°06' W 004°19'1 1.0
2017-Feb-16 23:34N 48°07' W 004°20'2 2.5
2017-Feb-16 22:34N 48°09' W 004°22'8 7.7
2017-Feb-16 21:34N 48°09' W 004°34'7 6.7
2017-Feb-16 20:33N 48°14' W 004°41'1 0.5
2017-Feb-16 19:33N 48°14' W 004°41'1 0.9
2017-Feb-16 18:34N 48°14' W 004°42'1 1.1
2017-Feb-16 17:34N 48°13' W 004°41'8 8.3
2017-Feb-16 16:33N 48°09' W 004°30'8 7.7
2017-Feb-16 15:34N 48°06' W 004°19'0 0.0
2017-Feb-16 11:05N 48°06' W 004°19'0 0.0
2017-Feb-16 10:34N 48°06' W 004°19'0 0.0
2017-Feb-16 09:34N 48°06' W 004°19'0 0.0
2017-Feb-15 20:22N 48°06' W 004°19'0 0.1
2017-Feb-15 19:33N 48°06' W 004°19'4 3.9
2017-Feb-15 18:34N 48°10' W 004°20'2 2.2
2017-Feb-15 17:33N 48°12' W 004°20'6 6.0
2017-Feb-15 16:33N 48°06' W 004°19'0 0.0
2017-Feb-14 20:33N 48°06' W 004°19'0 0.1
2017-Feb-14 19:34N 48°06' W 004°19'8 8.2
2017-Feb-14 18:34N 48°10' W 004°30'1 0.6
2017-Feb-14 17:34N 48°10' W 004°29'7 7.2
2017-Feb-14 16:31N 48°06' W 004°19'0 0.0
2017-Feb-13 20:33N 48°06' W 004°19'0 0.0
2017-Feb-13 19:34N 48°06' W 004°19'6 5.8
2017-Feb-13 18:34N 48°09' W 004°26'0 0.4
2017-Feb-13 17:34N 48°09' W 004°26'2 2.5
2017-Feb-13 16:33N 48°07' W 004°26'5 0.2
2017-Feb-12 18:33N 48°06' W 004°18'1 1.1
2017-Feb-12 17:33N 48°08' W 004°18'  

Dump ship's entire track history